Time;durP1;ratioP1;P1;durP2;ratioP2;P2;SDS_P1;SDS_P2;PMS_P1;PMS_P2;Temp;Humidity;BMP_temperature;BMP_pressure;BME280_temperature;BME280_humidity;BME280_pressure;Samples;Min_cycle;Max_cycle;Signal;HPM_P1;HPM_P2
2023/12/30 00:01:46;;;;;;;11.95;2.08;;;6.50;99.90;;;;;;5107431;27;20631;-64
2023/12/30 00:04:13;;;;;;;8.95;1.60;;;6.50;99.90;;;;;;5106690;27;20048;-64
2023/12/30 00:06:39;;;;;;;9.85;1.30;;;6.70;99.90;;;;;;5103886;28;20051;-64
2023/12/30 00:09:05;;;;;;;18.33;1.83;;;6.50;99.90;;;;;;5104563;28;20058;-64
2023/12/30 00:11:31;;;;;;;13.00;1.30;;;6.50;99.90;;;;;;5103444;28;20048;-65
2023/12/30 00:13:57;;;;;;;10.18;1.63;;;6.40;99.90;;;;;;5086508;28;20073;-65
2023/12/30 00:16:27;;;;;;;9.27;1.88;;;6.50;99.90;;;;;;5102594;28;20043;-63
2023/12/30 00:18:53;;;;;;;12.52;1.50;;;6.40;99.90;;;;;;5105037;28;20122;-65
2023/12/30 00:21:23;;;;;;;9.68;1.45;;;6.40;99.90;;;;;;5103423;28;20043;-64
2023/12/30 00:23:50;;;;;;;11.68;1.50;;;6.40;99.90;;;;;;5102311;28;20044;-64
2023/12/30 00:26:23;;;;;;;11.30;1.75;;;6.40;99.90;;;;;;5104086;28;20043;-66
2023/12/30 00:28:50;;;;;;;13.25;1.20;;;6.30;99.90;;;;;;5105175;28;20130;-66
2023/12/30 00:31:29;;;;;;;10.35;1.45;;;6.40;99.90;;;;;;5104557;27;20054;-66
2023/12/30 00:33:59;;;;;;;14.07;1.70;;;6.40;99.90;;;;;;5104204;28;20199;-67
2023/12/30 00:36:26;;;;;;;9.45;1.27;;;6.30;99.90;;;;;;5100102;28;20530;-67
2023/12/30 00:38:54;;;;;;;15.65;1.73;;;6.30;99.90;;;;;;5098473;28;20058;-67
2023/12/30 00:41:24;;;;;;;9.00;2.10;;;6.40;99.90;;;;;;5102955;28;20059;-66
2023/12/30 00:43:53;;;;;;;11.43;1.50;;;6.60;99.90;;;;;;5125832;27;20040;-66
2023/12/30 00:46:19;;;;;;;13.68;1.90;;;6.30;99.90;;;;;;5087910;28;20243;-66
2023/12/30 00:48:46;;;;;;;9.38;1.40;;;6.30;99.90;;;;;;5103340;28;20795;-67
2023/12/30 00:51:12;;;;;;;15.00;2.42;;;6.30;99.90;;;;;;5095493;28;20066;-66
2023/12/30 00:53:37;;;;;;;14.95;2.80;;;6.30;99.90;;;;;;5124807;27;20039;-67
2023/12/30 00:56:03;;;;;;;14.27;2.75;;;6.30;99.90;;;;;;5103430;28;20046;-66
2023/12/30 00:58:29;;;;;;;11.95;1.92;;;6.30;99.90;;;;;;5099927;28;20079;-66
2023/12/30 01:00:55;;;;;;;13.35;2.03;;;6.20;99.90;;;;;;5087388;28;20056;-68
2023/12/30 01:03:23;;;;;;;12.00;1.83;;;6.30;99.90;;;;;;5104524;28;20039;-67
2023/12/30 01:05:49;;;;;;;10.65;1.58;;;6.30;99.90;;;;;;5127889;27;20052;-67
2023/12/30 01:08:15;;;;;;;11.00;2.25;;;6.20;99.90;;;;;;5105641;28;20038;-67
2023/12/30 01:10:40;;;;;;;11.63;1.67;;;6.20;99.90;;;;;;5105922;28;20039;-67
2023/12/30 01:13:06;;;;;;;17.40;1.67;;;6.30;99.90;;;;;;5104226;28;20043;-67
2023/12/30 01:15:33;;;;;;;19.35;1.55;;;6.20;99.90;;;;;;5105526;28;20039;-68
2023/12/30 01:17:58;;;;;;;11.13;1.27;;;6.20;99.90;;;;;;5104136;28;20047;-67
2023/12/30 01:20:24;;;;;;;13.35;1.58;;;6.30;99.90;;;;;;5105376;28;20560;-70
2023/12/30 01:22:53;;;;;;;12.93;1.75;;;6.70;99.90;;;;;;5121866;27;20148;-67
2023/12/30 01:25:19;;;;;;;10.35;1.92;;;6.20;99.90;;;;;;5130980;27;20083;-67
2023/12/30 01:27:45;;;;;;;9.93;1.23;;;6.20;99.90;;;;;;5104841;28;20043;-67
2023/12/30 01:30:11;;;;;;;10.48;1.65;;;6.20;99.90;;;;;;5104635;28;20040;-68
2023/12/30 01:32:36;;;;;;;11.02;1.67;;;6.20;99.90;;;;;;5103591;28;21373;-66
2023/12/30 01:35:03;;;;;;;11.30;1.88;;;6.20;99.90;;;;;;5105216;27;20093;-65
2023/12/30 01:37:29;;;;;;;10.25;1.65;;;6.20;99.90;;;;;;5087334;28;20084;-66
2023/12/30 01:39:55;;;;;;;15.90;2.35;;;6.30;99.90;;;;;;5105126;27;20040;-67
2023/12/30 01:42:24;;;;;;;11.90;1.77;;;6.20;99.90;;;;;;5103591;28;20792;-67
2023/12/30 01:44:49;;;;;;;10.70;1.20;;;6.80;99.90;;;;;;5105219;28;20177;-67
2023/12/30 01:47:16;;;;;;;15.65;2.28;;;6.20;99.90;;;;;;5103630;28;20119;-67
2023/12/30 01:49:44;;;;;;;11.48;1.70;;;6.40;99.90;;;;;;5087484;28;20496;-67
2023/12/30 01:52:11;;;;;;;13.55;2.05;;;6.20;99.90;;;;;;5105494;28;20070;-67
2023/12/30 01:54:37;;;;;;;8.60;1.40;;;6.20;99.90;;;;;;5105081;28;20519;-67
2023/12/30 01:57:04;;;;;;;10.95;1.90;;;6.20;99.90;;;;;;5102167;28;20036;-68
2023/12/30 01:59:30;;;;;;;16.40;2.05;;;6.20;99.90;;;;;;5131673;27;20392;-68
2023/12/30 02:01:56;;;;;;;12.98;2.00;;;6.20;99.90;;;;;;5102016;28;20510;-68
2023/12/30 02:04:24;;;;;;;10.23;1.58;;;6.20;99.90;;;;;;5102308;28;20066;-66
2023/12/30 02:06:53;;;;;;;11.43;1.50;;;6.70;99.90;;;;;;5103195;28;20103;-66
2023/12/30 02:09:19;;;;;;;10.60;1.83;;;6.10;99.90;;;;;;5103326;28;20821;-66
2023/12/30 02:11:44;;;;;;;12.95;1.83;;;6.20;99.90;;;;;;5086240;28;20043;-66
2023/12/30 02:14:28;;;;;;;10.90;1.98;;;6.30;99.90;;;;;;5102473;28;20887;-66
2023/12/30 02:16:54;;;;;;;9.77;1.73;;;6.20;99.90;;;;;;5104036;28;20051;-66
2023/12/30 02:19:23;;;;;;;13.05;1.63;;;6.20;99.90;;;;;;5124393;27;20048;-67
2023/12/30 02:21:52;;;;;;;9.77;1.65;;;6.20;99.90;;;;;;5104599;28;20039;-67
2023/12/30 02:24:21;;;;;;;12.32;1.70;;;6.20;99.90;;;;;;5102427;28;20051;-67
2023/12/30 02:26:48;;;;;;;13.43;2.05;;;6.20;99.90;;;;;;5121018;27;20051;-67
2023/12/30 02:29:14;;;;;;;17.40;2.03;;;6.20;99.90;;;;;;5085968;28;20051;-66
2023/12/30 02:31:45;;;;;;;11.95;1.75;;;6.30;99.90;;;;;;5095815;28;20120;-66
2023/12/30 02:34:15;;;;;;;;;;;6.30;99.90;;;;;;5133155;27;20040;-67
2023/12/30 02:36:42;;;;;;;15.38;1.95;;;6.30;99.90;;;;;;5109967;27;20383;-67
2023/12/30 02:39:07;;;;;;;15.57;1.77;;;6.30;99.90;;;;;;5100147;28;20057;-67
2023/12/30 02:41:33;;;;;;;10.98;1.33;;;6.80;99.90;;;;;;5100048;28;20044;-67
2023/12/30 02:44:03;;;;;;;14.02;1.45;;;6.40;99.90;;;;;;5112426;28;20055;-67
2023/12/30 02:46:30;;;;;;;12.77;2.63;;;6.30;99.90;;;;;;5101233;28;20047;-68
2023/12/30 02:48:57;;;;;;;16.27;1.70;;;6.40;99.90;;;;;;5102320;28;20119;-68
2023/12/30 02:51:23;;;;;;;12.77;1.75;;;6.50;99.90;;;;;;5127489;27;20047;-68
2023/12/30 02:53:49;;;;;;;14.50;1.63;;;6.40;99.90;;;;;;5084075;28;20040;-68
2023/12/30 02:56:33;;;;;;;9.98;1.40;;;6.40;99.90;;;;;;5099625;28;20504;-67
2023/12/30 02:59:01;;;;;;;19.92;2.30;;;6.40;99.90;;;;;;5103611;28;20057;-67
2023/12/30 03:01:29;;;;;;;15.70;2.20;;;6.50;99.90;;;;;;5104235;28;20415;-68
2023/12/30 03:03:56;;;;;;;16.00;1.60;;;6.50;99.90;;;;;;5104277;28;20044;-69
2023/12/30 03:06:22;;;;;;;11.55;1.73;;;6.40;99.90;;;;;;5113695;28;20168;-67
2023/12/30 03:08:49;;;;;;;14.70;1.75;;;6.40;99.90;;;;;;5101421;28;20574;-68
2023/12/30 03:11:15;;;;;;;13.15;1.92;;;6.50;99.90;;;;;;5117960;28;20050;-68
2023/12/30 03:13:41;;;;;;;11.30;1.58;;;6.50;99.90;;;;;;5103855;28;20067;-68
2023/12/30 03:16:07;;;;;;;14.45;1.88;;;6.50;99.90;;;;;;5085463;28;20080;-68
2023/12/30 03:18:33;;;;;;;11.40;2.28;;;6.50;99.90;;;;;;5121645;27;20151;-69
2023/12/30 03:20:59;;;;;;;15.00;2.17;;;6.50;99.90;;;;;;5102709;28;20127;-67
2023/12/30 03:23:25;;;;;;;15.20;2.45;;;6.60;99.90;;;;;;5127107;27;20048;-68
2023/12/30 03:25:51;;;;;;;11.02;1.85;;;6.60;99.90;;;;;;5128641;27;20051;-68
2023/12/30 03:28:17;;;;;;;13.27;1.95;;;6.60;99.90;;;;;;5130519;27;20496;-68
2023/12/30 03:30:44;;;;;;;15.43;2.10;;;6.60;99.90;;;;;;5103194;28;20051;-68
2023/12/30 03:33:09;;;;;;;12.60;1.90;;;6.60;99.90;;;;;;5104303;28;20605;-68
2023/12/30 03:35:35;;;;;;;13.90;2.45;;;6.60;99.90;;;;;;5104181;28;20154;-67
2023/12/30 03:38:01;;;;;;;13.95;1.75;;;6.60;99.90;;;;;;5102463;28;20069;-68
2023/12/30 03:40:27;;;;;;;12.70;2.08;;;6.50;99.90;;;;;;5126478;27;20051;-68
2023/12/30 03:42:52;;;;;;;13.70;2.05;;;6.60;99.90;;;;;;5102779;28;20043;-67
2023/12/30 03:45:18;;;;;;;15.73;2.42;;;6.60;99.90;;;;;;5104397;28;20035;-68
2023/12/30 03:47:44;;;;;;;11.68;2.20;;;7.20;99.90;;;;;;5103642;28;20151;-67
2023/12/30 03:50:09;;;;;;;18.38;1.85;;;6.60;99.90;;;;;;5105604;28;20122;-67
2023/12/30 03:52:35;;;;;;;11.35;2.05;;;6.60;99.90;;;;;;5089168;28;20059;-68
2023/12/30 03:55:01;;;;;;;20.25;3.15;;;6.60;99.90;;;;;;5107973;28;20118;-67
2023/12/30 03:57:27;;;;;;;12.70;2.00;;;6.60;99.90;;;;;;5104634;28;20080;-68
2023/12/30 03:59:52;;;;;;;19.40;2.50;;;6.60;99.90;;;;;;5105753;28;20040;-65
2023/12/30 04:02:21;;;;;;;21.40;3.90;;;6.60;99.90;;;;;;5107553;27;20044;-65
2023/12/30 04:04:50;;;;;;;15.05;2.17;;;6.60;99.90;;;;;;5139165;27;20100;-65
2023/12/30 04:07:15;;;;;;;14.75;1.77;;;6.60;99.90;;;;;;5104831;28;20483;-67
2023/12/30 04:09:41;;;;;;;13.10;1.65;;;6.60;99.90;;;;;;5106269;28;20071;-67
2023/12/30 04:12:07;;;;;;;12.50;1.60;;;6.50;99.90;;;;;;5105826;28;20443;-67
2023/12/30 04:14:32;;;;;;;20.42;2.10;;;6.60;99.90;;;;;;5106433;28;20043;-67
2023/12/30 04:16:58;;;;;;;14.18;2.40;;;6.50;99.90;;;;;;5105260;28;20050;-66
2023/12/30 04:19:25;;;;;;;14.25;2.17;;;6.50;99.90;;;;;;5107015;28;20054;-67
2023/12/30 04:21:53;;;;;;;13.25;2.47;;;6.40;99.90;;;;;;5127158;27;20534;-66
2023/12/30 04:24:19;;;;;;;12.85;1.80;;;6.50;99.90;;;;;;5105295;28;20035;-67
2023/12/30 04:26:45;;;;;;;15.57;2.08;;;6.50;99.90;;;;;;5106375;28;20036;-67
2023/12/30 04:29:11;;;;;;;20.50;2.03;;;6.60;99.90;;;;;;5103513;28;20043;-67
2023/12/30 04:31:37;;;;;;;18.63;4.22;;;6.60;99.90;;;;;;5128725;27;20051;-67
2023/12/30 04:34:03;;;;;;;9.20;1.80;;;6.60;99.90;;;;;;5106757;28;20217;-68
2023/12/30 04:36:28;;;;;;;11.88;2.20;;;6.60;99.90;;;;;;5106741;28;20582;-65
2023/12/30 04:38:54;;;;;;;8.25;1.63;;;6.60;99.90;;;;;;5131356;27;20044;-67
2023/12/30 04:41:23;;;;;;;15.77;2.00;;;6.60;99.90;;;;;;5107088;28;20093;-66
2023/12/30 04:43:48;;;;;;;16.05;2.40;;;6.60;99.90;;;;;;5105467;28;20047;-66
2023/12/30 04:46:14;;;;;;;18.40;2.17;;;6.60;99.90;;;;;;5131175;27;20053;-66
2023/12/30 04:48:40;;;;;;;13.82;2.45;;;6.60;99.90;;;;;;5104917;28;20047;-68
2023/12/30 04:51:06;;;;;;;19.55;2.35;;;6.60;99.90;;;;;;5105181;28;20048;-67
2023/12/30 04:53:32;;;;;;;11.65;1.73;;;6.60;99.90;;;;;;5126089;27;20128;-66
2023/12/30 04:55:58;;;;;;;11.85;1.60;;;7.30;99.90;;;;;;5105967;28;20039;-67
2023/12/30 04:58:27;;;;;;;13.82;1.80;;;6.60;99.90;;;;;;5103484;28;20079;-66
2023/12/30 05:00:53;;;;;;;13.80;2.38;;;6.70;99.90;;;;;;5104554;28;20051;-66
2023/12/30 05:03:18;;;;;;;12.82;1.75;;;7.20;99.90;;;;;;5105516;27;20035;-66
2023/12/30 05:05:44;;;;;;;14.25;1.98;;;6.70;99.90;;;;;;5129479;27;20044;-66
2023/12/30 05:08:10;;;;;;;18.00;2.17;;;6.60;99.90;;;;;;5123382;27;20185;-66
2023/12/30 05:10:36;;;;;;;16.98;2.38;;;6.70;99.90;;;;;;5103800;28;20052;-67
2023/12/30 05:13:02;;;;;;;10.00;1.58;;;6.80;99.90;;;;;;5104324;28;20096;-67
2023/12/30 05:15:27;;;;;;;10.98;1.70;;;6.70;99.90;;;;;;5104373;28;20039;-66
2023/12/30 05:17:53;;;;;;;12.57;2.05;;;6.60;99.90;;;;;;5103765;28;20617;-66
2023/12/30 05:20:20;;;;;;;14.43;2.42;;;7.00;99.90;;;;;;5105732;28;20043;-67
2023/12/30 05:22:46;;;;;;;10.15;1.52;;;6.90;99.90;;;;;;5137013;27;20048;-66
2023/12/30 05:25:12;;;;;;;14.00;1.63;;;6.60;99.90;;;;;;5103833;28;20066;-67
2023/12/30 05:27:37;;;;;;;13.50;1.95;;;6.60;99.90;;;;;;5103210;28;20477;-66
2023/12/30 05:30:07;;;;;;;14.40;2.50;;;6.60;99.90;;;;;;5104171;28;20042;-66
2023/12/30 05:32:34;;;;;;;12.57;1.77;;;6.50;99.90;;;;;;5100478;27;20048;-67
2023/12/30 05:35:00;;;;;;;15.60;2.33;;;6.60;99.90;;;;;;5102724;28;20228;-67
2023/12/30 05:37:26;;;;;;;15.15;2.05;;;6.60;99.90;;;;;;5104246;28;20138;-67
2023/12/30 05:39:51;;;;;;;17.92;2.47;;;6.50;99.90;;;;;;5104946;28;20041;-68
2023/12/30 05:42:17;;;;;;;16.13;2.78;;;6.50;99.90;;;;;;5105327;28;20052;-66
2023/12/30 05:44:43;;;;;;;12.73;1.58;;;6.50;99.90;;;;;;5086677;28;20066;-66
2023/12/30 05:47:09;;;;;;;15.35;1.85;;;6.50;99.90;;;;;;5087035;28;20039;-66
2023/12/30 05:49:37;;;;;;;16.40;2.45;;;6.50;99.90;;;;;;5086116;28;20043;-72
2023/12/30 05:52:03;;;;;;;13.23;1.80;;;6.50;99.90;;;;;;5136769;27;20047;-67
2023/12/30 05:54:29;;;;;;;14.23;2.03;;;6.50;99.90;;;;;;5130859;27;20140;-67
2023/12/30 05:56:55;;;;;;;18.42;2.45;;;6.50;99.90;;;;;;5086318;28;20044;-66
2023/12/30 05:59:21;;;;;;;10.55;1.83;;;6.50;99.90;;;;;;5103653;28;20047;-66
2023/12/30 06:01:47;;;;;;;17.13;2.30;;;6.50;99.90;;;;;;5101627;28;20031;-67
2023/12/30 06:04:14;;;;;;;18.13;2.95;;;6.50;99.90;;;;;;5102090;27;20040;-67
2023/12/30 06:06:40;;;;;;;12.75;1.90;;;7.20;99.90;;;;;;5103617;28;20393;-67
2023/12/30 06:09:06;;;;;;;23.88;2.42;;;6.60;99.90;;;;;;5103480;28;20488;-67
2023/12/30 06:11:32;;;;;;;15.50;2.58;;;6.60;99.90;;;;;;5086612;28;20049;-68
2023/12/30 06:13:58;;;;;;;14.85;2.88;;;6.60;99.90;;;;;;5129654;27;20504;-66
2023/12/30 06:16:23;;;;;;;16.23;2.15;;;6.60;99.90;;;;;;5103365;28;20047;-69
2023/12/30 06:18:49;;;;;;;13.45;1.85;;;6.50;99.90;;;;;;5103613;28;20047;-67
2023/12/30 06:21:15;;;;;;;13.68;2.63;;;6.60;99.90;;;;;;5132167;27;20063;-66
2023/12/30 06:23:40;;;;;;;17.08;2.00;;;6.60;99.90;;;;;;5105095;28;20036;-66
2023/12/30 06:26:06;;;;;;;13.23;2.08;;;6.60;99.90;;;;;;5104393;28;20040;-66
2023/12/30 06:28:32;;;;;;;11.65;1.50;;;6.60;99.90;;;;;;5103726;28;20583;-66
2023/12/30 06:30:58;;;;;;;18.77;2.50;;;6.60;99.90;;;;;;5102803;28;20067;-67
2023/12/30 06:33:24;;;;;;;16.27;2.47;;;6.60;99.90;;;;;;5103034;28;20083;-68
2023/12/30 06:35:53;;;;;;;13.57;1.90;;;6.60;99.90;;;;;;5127733;27;20404;-67
2023/12/30 06:38:19;;;;;;;15.07;2.45;;;6.60;99.90;;;;;;5104470;28;20487;-69
2023/12/30 06:40:47;;;;;;;20.83;2.70;;;6.60;99.90;;;;;;5103147;28;20054;-67
2023/12/30 06:43:14;;;;;;;16.95;2.28;;;6.60;99.90;;;;;;5103009;28;20042;-67
2023/12/30 06:45:40;;;;;;;19.60;2.85;;;6.60;99.90;;;;;;5101418;28;20055;-67
2023/12/30 06:48:06;;;;;;;14.93;2.05;;;6.60;99.90;;;;;;5123825;27;20043;-67
2023/12/30 06:50:32;;;;;;;11.07;1.83;;;6.60;99.90;;;;;;5104291;28;20039;-67
2023/12/30 06:53:00;;;;;;;14.60;2.45;;;6.50;99.90;;;;;;5125432;27;20062;-67
2023/12/30 06:55:26;;;;;;;13.85;2.17;;;6.60;99.90;;;;;;5100561;28;20048;-67
2023/12/30 06:57:53;;;;;;;12.70;2.35;;;6.70;99.90;;;;;;5102226;28;20044;-67
2023/12/30 07:00:19;;;;;;;17.58;2.60;;;6.50;99.90;;;;;;5133330;27;20036;-67
2023/12/30 07:02:45;;;;;;;14.00;2.10;;;6.50;99.90;;;;;;5123497;27;20058;-70
2023/12/30 07:05:11;;;;;;;15.25;1.95;;;6.50;99.90;;;;;;5102539;28;20048;-67
2023/12/30 07:07:37;;;;;;;15.90;2.40;;;6.90;99.90;;;;;;5126448;27;20064;-67
2023/12/30 07:10:07;;;;;;;19.63;2.42;;;6.50;99.90;;;;;;5085524;28;20202;-67
2023/12/30 07:12:33;;;;;;;19.00;2.30;;;6.50;99.90;;;;;;5102545;28;20502;-70
2023/12/30 07:14:59;;;;;;;22.23;2.60;;;6.50;99.90;;;;;;5129822;27;20373;-67
2023/12/30 07:17:25;;;;;;;13.63;1.98;;;6.50;99.90;;;;;;5102050;28;20055;-67
2023/12/30 07:19:51;;;;;;;12.15;2.20;;;6.50;99.90;;;;;;5103221;28;20048;-67
2023/12/30 07:22:19;;;;;;;14.52;2.20;;;6.50;99.90;;;;;;5125792;27;20078;-67
2023/12/30 07:24:46;;;;;;;10.30;1.80;;;6.50;99.90;;;;;;5138844;27;20556;-67
2023/12/30 07:27:13;;;;;;;14.55;1.77;;;6.50;99.90;;;;;;5107626;28;20377;-67
2023/12/30 07:29:39;;;;;;;13.30;1.90;;;6.50;99.90;;;;;;5106737;28;20064;-67
2023/12/30 07:32:04;;;;;;;9.10;1.70;;;6.50;99.90;;;;;;5103991;28;20462;-66
2023/12/30 07:34:30;;;;;;;12.02;2.13;;;6.50;99.90;;;;;;5137602;27;20036;-67
2023/12/30 07:36:58;;;;;;;14.50;1.88;;;6.70;99.90;;;;;;5108405;28;20403;-67
2023/12/30 07:39:24;;;;;;;15.35;2.53;;;6.50;99.90;;;;;;5107191;28;20062;-67
2023/12/30 07:41:49;;;;;;;9.73;1.98;;;6.50;99.90;;;;;;5108469;28;20043;-67
2023/12/30 07:44:15;;;;;;;13.45;2.28;;;6.50;99.90;;;;;;5108429;28;20452;-66
2023/12/30 07:46:41;;;;;;;9.77;1.60;;;6.50;99.90;;;;;;5097406;28;20139;-66
2023/12/30 07:49:07;;;;;;;14.27;1.95;;;6.50;99.90;;;;;;5095935;28;20053;-67
2023/12/30 07:51:33;;;;;;;13.80;2.00;;;6.50;99.90;;;;;;5101142;28;20043;-67
2023/12/30 07:53:58;;;;;;;21.48;2.10;;;6.50;99.90;;;;;;5142001;27;20500;-67
2023/12/30 07:56:24;;;;;;;13.60;2.30;;;6.50;99.90;;;;;;5141045;27;20047;-66
2023/12/30 07:58:53;;;;;;;13.27;1.98;;;7.10;99.90;;;;;;5103040;28;20617;-66
2023/12/30 08:01:18;;;;;;;11.38;1.80;;;6.50;99.90;;;;;;5105897;28;20048;-67
2023/12/30 08:03:44;;;;;;;15.32;2.42;;;6.50;99.90;;;;;;5106306;28;20058;-66
2023/12/30 08:06:10;;;;;;;17.30;2.30;;;6.50;99.90;;;;;;5094737;28;20951;-67
2023/12/30 08:08:36;;;;;;;18.48;2.03;;;7.00;99.90;;;;;;5094233;28;20051;-67
2023/12/30 08:11:01;;;;;;;18.30;2.10;;;6.50;99.90;;;;;;5126215;27;20490;-68
2023/12/30 08:13:27;;;;;;;9.85;2.03;;;6.50;99.90;;;;;;5063264;28;20052;-68
2023/12/30 08:15:53;;;;;;;15.05;1.98;;;6.50;99.90;;;;;;5080133;28;20047;-67
2023/12/30 08:18:19;;;;;;;13.15;1.77;;;6.50;99.90;;;;;;5080751;28;20062;-68
2023/12/30 08:20:45;;;;;;;14.23;2.20;;;6.50;99.90;;;;;;5113396;27;20044;-66
2023/12/30 08:23:10;;;;;;;17.83;1.90;;;6.50;99.90;;;;;;5074598;28;20062;-66
2023/12/30 08:25:36;;;;;;;14.55;2.38;;;6.50;99.90;;;;;;5083529;28;20028;-67
2023/12/30 08:28:02;;;;;;;14.30;1.90;;;6.50;99.90;;;;;;5085564;28;20048;-67
2023/12/30 08:30:28;;;;;;;12.57;2.03;;;6.50;99.90;;;;;;5083997;28;20703;-67
2023/12/30 08:32:53;;;;;;;17.55;2.13;;;6.50;99.90;;;;;;5108035;27;20051;-67
2023/12/30 08:35:21;;;;;;;14.73;2.03;;;6.50;99.90;;;;;;5118853;27;20043;-67
2023/12/30 08:37:47;;;;;;;13.55;1.67;;;6.50;99.90;;;;;;5089510;28;20051;-67
2023/12/30 08:40:14;;;;;;;11.75;1.92;;;6.50;99.90;;;;;;5080646;28;20079;-67
2023/12/30 08:42:44;;;;;;;13.15;2.10;;;6.50;99.90;;;;;;5119713;27;20043;-67
2023/12/30 08:45:18;;;;;;;12.75;2.00;;;6.50;99.90;;;;;;5083234;28;20129;-66
2023/12/30 08:47:45;;;;;;;13.43;2.35;;;6.50;99.90;;;;;;5093684;28;20051;-66
2023/12/30 08:50:11;;;;;;;17.17;2.00;;;6.40;99.90;;;;;;5117963;27;20452;-68
2023/12/30 08:52:37;;;;;;;16.70;2.20;;;6.40;99.90;;;;;;5093284;28;20051;-66
2023/12/30 08:55:09;;;;;;;13.98;1.73;;;6.50;99.90;;;;;;5090278;28;20116;-67
2023/12/30 08:57:35;;;;;;;12.20;2.00;;;6.50;99.90;;;;;;5094422;28;20116;-67
2023/12/30 09:00:02;;;;;;;13.88;2.03;;;6.40;99.90;;;;;;5122076;27;20698;-68
2023/12/30 09:02:27;;;;;;;20.13;2.20;;;6.40;99.90;;;;;;5121034;27;20032;-68
2023/12/30 09:04:56;;;;;;;18.25;1.70;;;6.40;99.90;;;;;;5088055;28;20616;-70
2023/12/30 09:07:21;;;;;;;11.32;1.42;;;6.40;99.90;;;;;;5097366;28;20114;-68
2023/12/30 09:09:47;;;;;;;13.55;1.60;;;6.40;99.90;;;;;;5125730;27;20048;-68
2023/12/30 09:12:13;;;;;;;9.90;1.65;;;6.40;99.90;;;;;;5128251;27;20050;-67
2023/12/30 09:14:38;;;;;;;15.48;2.10;;;6.40;99.90;;;;;;5101635;28;20459;-66
2023/12/30 09:17:04;;;;;;;9.07;1.70;;;6.40;99.90;;;;;;5102476;28;20048;-66
2023/12/30 09:19:30;;;;;;;11.07;1.75;;;6.50;99.90;;;;;;5101219;28;20043;-66
2023/12/30 09:21:56;;;;;;;11.77;1.55;;;6.40;99.90;;;;;;5102805;28;20610;-66
2023/12/30 09:24:21;;;;;;;12.93;1.73;;;6.50;99.90;;;;;;5102837;28;20446;-67
2023/12/30 09:26:47;;;;;;;11.77;1.90;;;6.50;99.90;;;;;;5085790;28;20415;-67
2023/12/30 09:29:13;;;;;;;13.70;1.65;;;6.80;99.90;;;;;;5086749;28;20043;-67
2023/12/30 09:31:39;;;;;;;14.05;1.88;;;7.10;99.90;;;;;;5101875;28;20039;-67
2023/12/30 09:34:05;;;;;;;11.80;1.60;;;6.50;99.90;;;;;;5098957;28;20082;-69
2023/12/30 09:36:31;;;;;;;15.55;1.73;;;6.50;99.90;;;;;;5126622;27;20123;-68
2023/12/30 09:38:56;;;;;;;12.32;2.10;;;6.50;99.90;;;;;;5126958;27;20841;-68
2023/12/30 09:41:26;;;;;;;14.80;1.85;;;6.60;99.90;;;;;;5133179;27;20104;-68
2023/12/30 09:43:53;;;;;;;13.43;1.85;;;6.50;99.90;;;;;;5095218;28;20047;-68
2023/12/30 09:46:24;;;;;;;10.77;1.77;;;6.60;99.90;;;;;;5123189;27;20413;-67
2023/12/30 09:48:51;;;;;;;11.95;1.98;;;6.60;99.90;;;;;;5123687;27;20059;-68
2023/12/30 09:51:17;;;;;;;15.70;2.25;;;6.60;99.90;;;;;;5104410;27;20127;-67
2023/12/30 09:53:43;;;;;;;17.15;2.03;;;6.60;99.90;;;;;;5104647;28;20127;-67
2023/12/30 09:56:09;;;;;;;20.05;1.80;;;6.60;99.90;;;;;;5129646;27;20044;-67
2023/12/30 09:58:37;;;;;;;10.40;1.90;;;6.70;99.90;;;;;;5076552;28;20047;-67
2023/12/30 10:01:04;;;;;;;11.30;2.22;;;6.70;99.90;;;;;;5094854;28;20077;-67
2023/12/30 10:03:31;;;;;;;9.93;1.70;;;6.70;99.90;;;;;;5104130;28;20393;-69
2023/12/30 10:06:03;;;;;;;11.40;1.45;;;6.70;99.90;;;;;;5137343;27;20059;-66
2023/12/30 10:08:29;;;;;;;12.48;1.77;;;6.80;99.90;;;;;;5101990;28;20697;-68
2023/12/30 10:10:57;;;;;;;10.15;1.67;;;6.80;99.90;;;;;;5104380;28;20463;-69
2023/12/30 10:13:26;;;;;;;13.70;1.80;;;6.80;99.90;;;;;;5094005;28;20043;-67
2023/12/30 10:15:53;;;;;;;12.45;1.85;;;6.80;99.90;;;;;;5100439;28;20040;-68
2023/12/30 10:18:22;;;;;;;15.38;1.60;;;6.80;99.90;;;;;;5090250;28;20056;-69
2023/12/30 10:20:48;;;;;;;12.32;1.80;;;6.80;99.90;;;;;;5084270;28;20055;-67
2023/12/30 10:23:14;;;;;;;14.45;1.85;;;6.90;99.90;;;;;;5097573;27;20043;-67
2023/12/30 10:25:41;;;;;;;11.32;1.73;;;7.20;99.90;;;;;;5100795;28;20416;-71
2023/12/30 10:28:07;;;;;;;11.35;1.52;;;6.90;99.90;;;;;;5080155;28;20504;-66
2023/12/30 10:30:33;;;;;;;10.20;1.40;;;6.90;99.90;;;;;;5102494;28;20673;-67
2023/12/30 10:33:10;;;;;;;13.02;1.90;;;7.30;99.90;;;;;;5090449;28;20032;-67
2023/12/30 10:35:38;;;;;;;12.48;1.67;;;6.90;99.90;;;;;;5091190;28;20096;-67
2023/12/30 10:38:04;;;;;;;9.93;1.23;;;6.90;99.90;;;;;;5088608;28;20750;-67
2023/12/30 10:40:31;;;;;;;17.30;1.92;;;6.90;99.90;;;;;;5096142;27;20076;-69
2023/12/30 10:42:57;;;;;;;9.48;1.70;;;6.90;99.90;;;;;;5088970;28;20460;-68
2023/12/30 10:45:24;;;;;;;13.40;1.88;;;6.90;99.90;;;;;;5096622;28;20052;-69
2023/12/30 10:47:50;;;;;;;12.57;2.03;;;7.00;99.90;;;;;;5128547;27;20492;-67
2023/12/30 10:50:23;;;;;;;13.60;2.00;;;6.90;99.90;;;;;;5094397;28;20138;-66
2023/12/30 10:53:16;;;;;;;11.05;1.83;;;7.00;99.90;;;;;;5102210;28;20044;-67
2023/12/30 10:55:53;;;;;;;10.15;1.48;;;7.00;99.90;;;;;;5103771;28;20046;-67
2023/12/30 10:58:21;;;;;;;14.23;1.90;;;7.00;99.90;;;;;;5113050;27;20050;-67
2023/12/30 11:00:57;;;;;;;15.18;1.67;;;7.00;99.90;;;;;;5121925;27;20044;-67
2023/12/30 11:03:24;;;;;;;10.35;1.80;;;7.00;99.90;;;;;;5104124;27;20411;-67
2023/12/30 11:06:23;;;;;;;9.75;2.25;;;7.20;99.90;;;;;;5108298;28;20047;-68
2023/12/30 11:08:52;;;;;;;14.73;2.40;;;7.10;99.90;;;;;;5081810;28;20047;-68
2023/12/30 11:11:19;;;;;;;14.65;2.17;;;7.20;99.90;;;;;;5102816;28;20074;-67
2023/12/30 11:13:45;;;;;;;11.50;1.60;;;7.10;99.90;;;;;;5107642;28;20051;-67
2023/12/30 11:16:21;;;;;;;11.35;1.95;;;7.10;99.90;;;;;;5122372;27;20051;-68
2023/12/30 11:18:52;;;;;;;13.00;1.23;;;7.20;99.90;;;;;;5102124;28;20035;-68
2023/12/30 11:21:46;;;;;;;14.50;1.52;;;7.20;99.90;;;;;;5104559;28;20054;-68
2023/12/30 11:24:15;;;;;;;16.20;2.08;;;7.20;99.90;;;;;;5101426;28;20042;-67
2023/12/30 11:26:42;;;;;;;10.70;1.75;;;7.20;99.90;;;;;;5103275;28;20918;-67
2023/12/30 11:29:19;;;;;;;11.15;2.13;;;7.80;99.90;;;;;;5100976;28;20510;-67
2023/12/30 11:31:46;;;;;;;16.00;2.60;;;7.20;99.90;;;;;;5098732;27;20131;-68
2023/12/30 11:34:14;;;;;;;13.48;1.63;;;7.70;99.90;;;;;;5099056;27;20118;-68
2023/12/30 11:36:41;;;;;;;10.50;1.40;;;7.20;99.90;;;;;;5100171;28;20051;-67
2023/12/30 11:39:07;;;;;;;11.75;1.83;;;7.20;99.90;;;;;;5103652;28;20118;-67
2023/12/30 11:41:35;;;;;;;14.55;2.55;;;7.30;99.90;;;;;;5103465;28;22372;-67
2023/12/30 11:44:03;;;;;;;10.45;1.65;;;7.30;99.90;;;;;;5104873;28;20050;-68
2023/12/30 11:46:29;;;;;;;10.68;1.73;;;7.30;99.90;;;;;;5106471;27;20763;-68
2023/12/30 11:48:58;;;;;;;9.70;1.60;;;7.30;99.90;;;;;;5106154;28;20048;-68
2023/12/30 11:51:29;;;;;;;13.63;1.83;;;7.40;99.90;;;;;;5105281;28;20040;-67
2023/12/30 11:53:55;;;;;;;15.10;1.83;;;7.40;99.90;;;;;;5104875;28;20078;-68
2023/12/30 11:56:23;;;;;;;13.75;2.30;;;7.40;99.90;;;;;;5104710;28;20046;-68
2023/12/30 11:58:51;;;;;;;9.32;1.42;;;7.40;99.90;;;;;;5107205;28;20078;-68
2023/12/30 12:01:19;;;;;;;18.48;2.40;;;7.40;99.90;;;;;;5105883;28;20392;-68
2023/12/30 12:03:45;;;;;;;10.82;2.10;;;7.60;99.90;;;;;;5101430;28;20063;-67
2023/12/30 12:06:11;;;;;;;15.68;2.33;;;7.40;99.90;;;;;;5105739;28;20122;-67
2023/12/30 12:08:38;;;;;;;10.90;2.17;;;7.40;99.90;;;;;;5090195;28;20044;-69
2023/12/30 12:11:06;;;;;;;11.88;2.10;;;7.40;99.90;;;;;;5093925;28;20047;-67
2023/12/30 12:13:32;;;;;;;14.68;2.10;;;7.40;99.90;;;;;;5105672;28;20071;-67
2023/12/30 12:15:58;;;;;;;11.90;2.00;;;7.40;99.90;;;;;;5086112;28;20047;-68
2023/12/30 12:18:24;;;;;;;12.38;2.25;;;7.40;99.90;;;;;;5097123;28;20109;-67
2023/12/30 12:20:53;;;;;;;18.05;2.55;;;7.40;99.90;;;;;;5126632;27;20051;-68
2023/12/30 12:23:23;;;;;;;10.13;1.70;;;7.40;99.90;;;;;;5132190;27;20059;-69
2023/12/30 12:25:49;;;;;;;13.85;2.42;;;7.40;99.90;;;;;;5101355;28;20035;-68
2023/12/30 12:28:16;;;;;;;9.90;1.98;;;7.30;99.90;;;;;;5094475;28;20404;-68
2023/12/30 12:30:43;;;;;;;12.23;2.50;;;7.40;99.90;;;;;;5097784;28;20050;-68
2023/12/30 12:33:12;;;;;;;8.95;1.85;;;7.40;99.90;;;;;;5095171;28;20050;-68
2023/12/30 12:35:39;;;;;;;14.93;2.67;;;7.40;99.90;;;;;;5129369;27;20593;-68
2023/12/30 12:38:05;;;;;;;15.10;2.40;;;7.40;99.90;;;;;;5100597;28;20043;-68
2023/12/30 12:40:32;;;;;;;16.80;2.40;;;7.40;99.90;;;;;;5097848;28;20047;-69
2023/12/30 12:42:58;;;;;;;18.67;2.83;;;7.40;99.90;;;;;;5099902;28;20056;-68
2023/12/30 12:45:24;;;;;;;13.90;2.42;;;7.40;99.90;;;;;;5100434;28;20047;-67
2023/12/30 12:47:50;;;;;;;11.68;2.08;;;7.40;99.90;;;;;;5099489;28;20624;-68